Sibulan Airport
RPVD : now visible

Airfield :











YOU CAN JOIN US ON...

 
LOGIN :

Register | Disclaimer

   EN    FR    IT 

 









Legend :    VFR   Marginal VFR   IFR   Intensive IFR   Very Intensive IFR
Visi :
Ceiling :
>= 8 km
>= 3000ft
5 to 8 km
1000 to 3000 ft
1500m to 5 km
500 to 1000 ft
800 to 1500m
200 to 500 ft
< 800m
< 200 ft
Symbols :   Thunderstorms  Fog  Heavy snow  Heavy precipitations  Wind > 20 kt






- Airport Elevation : 15 ft
- IATA code : DGT


RPVD - Sibulan

CURRENT METAR :
  • 230900Z 00000KT 9999 FEW014CB 31/26 Q1006 RMK A2971

EXPIRED METARs :
  • 230800Z 04008KT 9999 FEW014CB 31/26 Q1005 RMK A2968 CB NW
  • 230700Z 07008KT 9999 FEW024 32/26 Q1006 RMK A2971
  • 230600Z 07012KT 9999 FEW024 32/25 Q1006 RMK A2971
  • 230500Z 07010KT 9999 FEW024 32/25 Q1007 RMK A2974

TAF TAF RPVD
Valid from the 23 at 06:00 until the 24 at 06:00 UTC


230500Z 2306/2406 07010KT 9999 FEW024
BECMG 2312/2314 VRB04KT FEW015
TEMPO 2318/2324 29006KT SCT015 BKN070
BECMG 2401/2403 07010KT 6000 -SHRA FEW014CB SCT015 OVC070
RPHI FIR / Asia



MET'MAP, your aeronautical weather chart ! - Copyright ORBIFLY December 2007 - Disclaimer

ORBIFLY MET'MAP TEAM :

Programming & Development : Alexandra Zaïnal
Original concept : Baudouin d'Aumeries
Technical & hardware support : Manuel Goepfert
Assistance : Marc-Olivier Méhu




SOURCES & CREDITS :

   NOAA       Earth
Advisory